createdAt,value
2018-05-03T00:00:34.320Z,11.10
2018-05-03T00:03:02.216Z,11.20
2018-05-03T00:05:29.720Z,11.20
2018-05-03T00:07:57.233Z,11.20
2018-05-03T00:10:24.733Z,11.20
2018-05-03T00:12:52.238Z,11.20
2018-05-03T00:15:19.733Z,11.20
2018-05-03T00:17:47.245Z,11.20
2018-05-03T00:20:14.802Z,11.20
2018-05-03T00:22:42.264Z,11.20
2018-05-03T00:25:09.776Z,11.30
2018-05-03T00:27:37.287Z,11.30
2018-05-03T00:30:04.790Z,11.30
2018-05-03T00:32:32.294Z,11.20
2018-05-03T00:34:59.806Z,11.20
2018-05-03T00:37:27.336Z,11.10
2018-05-03T00:39:54.919Z,11.00
2018-05-03T00:42:24.822Z,10.90
2018-05-03T00:44:53.164Z,10.90
2018-05-03T00:47:20.679Z,10.90
2018-05-03T00:49:48.577Z,10.80
2018-05-03T00:52:16.082Z,10.80
2018-05-03T00:54:48.388Z,10.70
2018-05-03T00:57:15.906Z,10.70
2018-05-03T00:59:43.408Z,10.60
2018-05-03T01:02:10.947Z,10.60
2018-05-03T01:04:38.456Z,10.50
2018-05-03T01:07:05.962Z,10.50
2018-05-03T01:09:33.450Z,10.40
2018-05-03T01:12:00.959Z,10.40
2018-05-03T01:14:28.480Z,10.40
2018-05-03T01:16:55.970Z,10.30
2018-05-03T01:19:23.455Z,10.20
2018-05-03T01:21:51.333Z,10.10
2018-05-03T01:24:19.222Z,10.10
2018-05-03T01:26:46.713Z,10.10
2018-05-03T01:29:14.221Z,10.00
2018-05-03T01:31:41.720Z,10.00
2018-05-03T01:34:09.256Z,9.90
2018-05-03T01:36:36.788Z,9.90
2018-05-03T01:39:04.294Z,9.80
2018-05-03T01:41:31.845Z,9.70
2018-05-03T01:43:59.340Z,9.70
2018-05-03T01:46:26.827Z,9.60
2018-05-03T01:48:54.368Z,9.50
2018-05-03T01:51:22.290Z,9.40
2018-05-03T01:53:49.825Z,9.40
2018-05-03T01:56:17.690Z,9.20
2018-05-03T01:58:45.191Z,9.20
2018-05-03T02:01:12.707Z,9.20
2018-05-03T02:03:40.188Z,9.10
2018-05-03T02:06:07.700Z,9.10
2018-05-03T02:08:35.219Z,9.10
2018-05-03T02:11:02.721Z,9.10
2018-05-03T02:13:30.201Z,9.10
2018-05-03T02:15:57.716Z,9.10
2018-05-03T02:18:25.617Z,9.10
2018-05-03T02:20:53.107Z,9.10
2018-05-03T02:23:20.616Z,9.10
2018-05-03T02:25:48.114Z,9.10
2018-05-03T02:28:15.611Z,9.10
2018-05-03T02:30:43.536Z,9.10
2018-05-03T02:33:11.033Z,9.10
2018-05-03T02:35:38.940Z,9.00
2018-05-03T02:38:06.429Z,9.00
2018-05-03T02:40:34.041Z,8.90
2018-05-03T02:43:01.562Z,8.90
2018-05-03T02:45:29.045Z,8.80
2018-05-03T02:47:56.934Z,8.70
2018-05-03T02:50:24.450Z,8.70
2018-05-03T02:52:51.955Z,8.70
2018-05-03T02:55:19.468Z,8.80
2018-05-03T02:58:04.395Z,8.80
2018-05-03T03:00:49.282Z,8.80
2018-05-03T03:03:34.196Z,8.80
2018-05-03T03:06:13.843Z,8.90
2018-05-03T03:09:12.566Z,8.90
2018-05-03T03:11:53.389Z,8.90
2018-05-03T03:17:51.852Z,8.90
2018-05-03T03:23:48.149Z,8.80
2018-05-03T03:29:57.426Z,8.70
2018-05-03T03:32:36.871Z,8.60
2018-05-03T03:38:31.808Z,8.50
2018-05-03T03:41:11.000Z,8.40
2018-05-03T03:43:50.394Z,8.30
2018-05-03T03:46:17.890Z,8.30
2018-05-03T03:48:45.395Z,8.20
2018-05-03T03:51:12.897Z,8.20
2018-05-03T03:53:40.388Z,8.20
2018-05-03T03:56:07.869Z,8.10
2018-05-03T03:58:35.772Z,8.10
2018-05-03T04:01:03.242Z,8.10
2018-05-03T04:03:30.747Z,8.10
2018-05-03T04:05:58.250Z,8.10
2018-05-03T04:08:25.747Z,8.10
2018-05-03T04:10:53.262Z,8.20
2018-05-03T04:13:21.332Z,8.20
2018-05-03T04:15:48.839Z,8.20
2018-05-03T04:18:28.153Z,8.20
2018-05-03T04:21:09.160Z,8.30
2018-05-03T04:23:48.516Z,8.40
2018-05-03T04:26:16.005Z,8.40
2018-05-03T04:28:43.481Z,8.50
2018-05-03T04:31:10.980Z,8.50
2018-05-03T04:33:38.866Z,8.60
2018-05-03T04:36:08.691Z,8.70
2018-05-03T04:38:36.945Z,8.70
2018-05-03T04:41:04.850Z,8.80
2018-05-03T04:43:32.356Z,8.80
2018-05-03T04:46:00.275Z,9.00
2018-05-03T04:48:27.764Z,9.00
2018-05-03T04:50:56.022Z,9.00
2018-05-03T04:53:23.528Z,9.10
2018-05-03T04:55:54.310Z,9.10
2018-05-03T04:58:21.816Z,9.20
2018-05-03T05:00:49.731Z,9.20
2018-05-03T05:03:17.241Z,9.30
2018-05-03T05:05:45.165Z,9.40
2018-05-03T05:08:12.657Z,9.40
2018-05-03T05:10:40.545Z,9.60
2018-05-03T05:13:08.023Z,9.60
2018-05-03T05:15:35.564Z,9.80
2018-05-03T05:18:03.081Z,9.90
2018-05-03T05:20:30.596Z,10.00
2018-05-03T05:22:58.137Z,10.10
2018-05-03T05:25:25.638Z,10.20
2018-05-03T05:27:53.157Z,10.30
2018-05-03T05:30:20.646Z,10.50
2018-05-03T05:32:48.703Z,10.50
2018-05-03T05:35:16.228Z,10.60
2018-05-03T05:37:44.731Z,10.70
2018-05-03T05:40:15.265Z,10.80
2018-05-03T05:42:42.775Z,10.90
2018-05-03T05:45:10.283Z,10.90
2018-05-03T05:47:38.125Z,11.00
2018-05-03T05:50:06.112Z,11.20
2018-05-03T05:52:34.202Z,11.20
2018-05-03T05:55:01.740Z,11.30
2018-05-03T05:57:29.261Z,11.40
2018-05-03T05:59:57.192Z,11.50
2018-05-03T06:02:24.699Z,11.50
2018-05-03T06:04:52.183Z,11.60
2018-05-03T06:07:20.698Z,11.70
2018-05-03T06:09:48.187Z,11.70
2018-05-03T06:12:16.155Z,11.90
2018-05-03T06:14:43.624Z,11.90
2018-05-03T06:17:11.134Z,12.00
2018-05-03T06:19:38.637Z,12.10
2018-05-03T06:22:06.157Z,12.10
2018-05-03T06:24:33.637Z,12.30
2018-05-03T06:27:01.554Z,12.90
2018-05-03T06:29:29.046Z,12.90
2018-05-03T06:31:56.545Z,13.10
2018-05-03T06:34:24.064Z,13.30
2018-05-03T06:36:51.565Z,13.60
2018-05-03T06:39:19.086Z,13.80
2018-05-03T06:44:21.038Z,14.20
2018-05-03T06:46:48.548Z,14.20
2018-05-03T06:49:16.050Z,14.50
2018-05-03T06:51:43.573Z,14.70
2018-05-03T06:54:11.089Z,14.90
2018-05-03T06:56:38.614Z,14.80
2018-05-03T06:59:06.132Z,14.90
2018-05-03T07:01:33.646Z,14.90
2018-05-03T07:04:01.219Z,15.10
2018-05-03T07:06:28.645Z,15.00
2018-05-03T07:08:56.148Z,15.10
2018-05-03T07:11:23.682Z,15.30
2018-05-03T07:13:51.212Z,15.30
2018-05-03T07:16:18.733Z,15.30
2018-05-03T07:18:46.272Z,15.30
2018-05-03T07:21:14.165Z,15.30
2018-05-03T07:23:41.684Z,15.20
2018-05-03T07:26:09.657Z,15.40
2018-05-03T07:28:37.154Z,15.40
2018-05-03T07:31:04.735Z,15.40
2018-05-03T07:33:32.234Z,15.50
2018-05-03T07:35:59.748Z,15.70
2018-05-03T07:38:27.254Z,15.80
2018-05-03T07:40:55.221Z,16.20
2018-05-03T07:43:22.677Z,16.20
2018-05-03T07:45:51.141Z,16.70
2018-05-03T07:48:18.645Z,16.70
2018-05-03T07:50:46.144Z,16.80
2018-05-03T07:53:13.651Z,16.90
2018-05-03T07:55:41.157Z,16.50
2018-05-03T07:58:08.857Z,16.50
2018-05-03T08:00:36.765Z,16.70
2018-05-03T08:03:04.288Z,16.70
2018-05-03T08:05:32.218Z,16.70
2018-05-03T08:07:59.741Z,16.70
2018-05-03T08:10:27.247Z,16.90
2018-05-03T08:12:55.176Z,17.00
2018-05-03T08:15:22.741Z,17.00
2018-05-03T08:17:50.229Z,17.30
2018-05-03T08:20:17.740Z,17.60
2018-05-03T08:22:45.221Z,17.70
2018-05-03T08:25:12.718Z,18.00
2018-05-03T08:27:40.608Z,18.30
2018-05-03T08:30:08.101Z,18.30
2018-05-03T08:32:35.605Z,18.50
2018-05-03T08:35:03.504Z,18.90
2018-05-03T08:37:31.002Z,19.00
2018-05-03T08:39:58.518Z,19.20
2018-05-03T08:42:25.993Z,19.70
2018-05-03T08:44:53.492Z,19.70
2018-05-03T08:47:21.396Z,19.90
2018-05-03T08:49:48.943Z,19.90
2018-05-03T08:52:16.444Z,19.70
2018-05-03T08:54:43.951Z,19.70
2018-05-03T08:57:11.448Z,19.60
2018-05-03T08:59:38.964Z,19.70
2018-05-03T09:02:06.464Z,19.20
2018-05-03T09:04:33.981Z,19.00
2018-05-03T09:07:01.581Z,19.40
2018-05-03T09:09:29.061Z,19.60
2018-05-03T09:11:56.560Z,19.70
2018-05-03T09:14:24.046Z,19.20
2018-05-03T09:16:51.545Z,19.30
2018-05-03T09:19:19.444Z,19.80
2018-05-03T09:21:46.933Z,19.80
2018-05-03T09:24:14.442Z,18.80
2018-05-03T09:26:42.322Z,18.70
2018-05-03T09:29:09.827Z,18.70
2018-05-03T09:31:37.368Z,19.10
2018-05-03T09:34:04.865Z,19.60
2018-05-03T09:36:32.788Z,20.20
2018-05-03T09:39:00.296Z,20.20
2018-05-03T09:41:27.884Z,20.10
2018-05-03T09:43:55.387Z,19.90
2018-05-03T09:46:22.881Z,20.30
2018-05-03T09:48:50.829Z,21.30
2018-05-03T09:51:18.752Z,20.60
2018-05-03T09:53:46.273Z,20.60
2018-05-03T09:56:14.195Z,21.50
2018-05-03T09:58:41.698Z,21.50
2018-05-03T10:01:09.208Z,21.60
2018-05-03T10:03:36.724Z,21.80
2018-05-03T10:06:04.240Z,22.10
2018-05-03T10:08:31.749Z,21.70
2018-05-03T10:10:59.266Z,21.40
2018-05-03T10:13:26.811Z,21.60
2018-05-03T10:15:54.332Z,21.70
2018-05-03T10:18:21.853Z,20.80
2018-05-03T10:20:49.759Z,21.30
2018-05-03T10:23:17.251Z,21.30
2018-05-03T10:25:44.758Z,21.20
2018-05-03T10:28:12.285Z,21.60
2018-05-03T10:30:39.771Z,21.60
2018-05-03T10:33:07.261Z,21.70
2018-05-03T10:35:34.769Z,21.70
2018-05-03T10:38:02.669Z,21.40
2018-05-03T10:40:30.165Z,21.30
2018-05-03T10:42:57.675Z,21.80
2018-05-03T10:45:25.201Z,21.70
2018-05-03T10:47:53.082Z,21.60
2018-05-03T10:50:20.589Z,21.60
2018-05-03T10:52:48.158Z,20.40
2018-05-03T10:55:15.676Z,20.40
2018-05-03T10:57:43.181Z,20.10
2018-05-03T11:00:10.690Z,19.60
2018-05-03T11:02:38.216Z,19.90
2018-05-03T11:05:06.107Z,20.90
2018-05-03T11:07:33.626Z,20.90
2018-05-03T11:10:01.129Z,21.20
2018-05-03T11:12:28.622Z,21.10
2018-05-03T11:14:56.120Z,21.30
2018-05-03T11:17:24.007Z,21.50
2018-05-03T11:19:51.513Z,21.50
2018-05-03T11:22:19.017Z,21.70
2018-05-03T11:24:46.542Z,21.60
2018-05-03T11:27:14.442Z,21.30
2018-05-03T11:29:41.938Z,21.30
2018-05-03T11:32:09.459Z,21.20
2018-05-03T11:34:36.971Z,20.70
2018-05-03T11:37:04.510Z,20.50
2018-05-03T11:39:32.008Z,20.20
2018-05-03T11:41:59.916Z,20.60
2018-05-03T11:44:27.433Z,20.60
2018-05-03T11:46:55.324Z,20.90
2018-05-03T11:49:22.836Z,21.00
2018-05-03T11:51:50.334Z,21.30
2018-05-03T11:54:17.842Z,20.90
2018-05-03T11:56:45.337Z,21.10
2018-05-03T11:59:12.857Z,20.90
2018-05-03T12:01:40.414Z,20.70
2018-05-03T12:04:07.915Z,19.80
2018-05-03T12:06:35.452Z,20.20
2018-05-03T12:09:04.234Z,20.30
2018-05-03T12:11:32.122Z,20.30
2018-05-03T12:14:00.213Z,20.30
2018-05-03T12:16:27.725Z,20.30
2018-05-03T12:18:55.243Z,20.50
2018-05-03T12:21:22.750Z,20.60
2018-05-03T12:23:50.238Z,21.10
2018-05-03T12:26:17.754Z,21.30
2018-05-03T12:28:45.697Z,21.30
2018-05-03T12:31:13.200Z,21.20
2018-05-03T12:33:40.744Z,22.00
2018-05-03T12:36:08.651Z,22.20
2018-05-03T12:38:36.200Z,22.20
2018-05-03T12:41:04.102Z,22.20
2018-05-03T12:43:31.603Z,22.20
2018-05-03T12:45:59.125Z,22.40
2018-05-03T12:48:26.621Z,21.80
2018-05-03T12:50:54.122Z,21.60
2018-05-03T12:53:21.982Z,21.70
2018-05-03T12:55:49.485Z,21.60
2018-05-03T12:58:17.045Z,21.90
2018-05-03T13:00:45.007Z,22.20
2018-05-03T13:03:12.494Z,22.20
2018-05-03T13:05:40.338Z,22.30
2018-05-03T13:08:08.278Z,21.90
2018-05-03T13:10:35.785Z,21.90
2018-05-03T13:13:03.384Z,22.20
2018-05-03T13:15:30.911Z,22.10
2018-05-03T13:17:58.527Z,22.00
2018-05-03T13:20:26.009Z,22.20
2018-05-03T13:22:53.548Z,22.10
2018-05-03T13:25:21.084Z,22.10
2018-05-03T13:27:48.608Z,21.70
2018-05-03T13:30:16.137Z,21.30
2018-05-03T13:32:44.035Z,20.60
2018-05-03T13:35:11.543Z,20.60
2018-05-03T13:37:40.470Z,20.70
2018-05-03T13:40:09.461Z,20.90
2018-05-03T13:42:37.202Z,20.50
2018-05-03T13:45:05.246Z,20.90
2018-05-03T13:47:32.758Z,20.90
2018-05-03T13:50:00.347Z,21.50
2018-05-03T13:52:27.863Z,22.10
2018-05-03T13:54:55.595Z,22.60
2018-05-03T13:57:23.085Z,22.80
2018-05-03T13:59:50.613Z,22.80
2018-05-03T14:02:18.594Z,21.80
2018-05-03T14:04:46.532Z,21.50
2018-05-03T14:07:14.123Z,21.50
2018-05-03T14:09:41.939Z,21.40
2018-05-03T14:12:09.531Z,21.50
2018-05-03T14:14:37.026Z,21.00
2018-05-03T14:17:04.546Z,21.00
2018-05-03T14:19:33.181Z,21.10
2018-05-03T14:22:01.873Z,20.90
2018-05-03T14:24:30.497Z,21.10
2018-05-03T14:26:59.352Z,21.20
2018-05-03T14:29:28.578Z,21.50
2018-05-03T14:31:57.125Z,21.40
2018-05-03T14:34:25.889Z,21.10
2018-05-03T14:36:54.659Z,20.50
2018-05-03T14:39:23.256Z,20.70
2018-05-03T14:41:51.703Z,20.60
2018-05-03T14:44:20.487Z,20.70
2018-05-03T14:46:48.091Z,20.60
2018-05-03T14:49:15.588Z,20.90
2018-05-03T14:51:43.085Z,21.20
2018-05-03T14:54:11.006Z,21.30
2018-05-03T14:56:38.492Z,21.30
2018-05-03T14:59:05.997Z,22.10
2018-05-03T15:01:33.520Z,22.40
2018-05-03T15:04:01.043Z,22.20
2018-05-03T15:06:28.581Z,22.30
2018-05-03T15:08:56.069Z,22.10
2018-05-03T15:11:23.576Z,21.90
2018-05-03T15:13:51.077Z,21.80
2018-05-03T15:16:24.583Z,21.50
2018-05-03T15:18:52.032Z,21.50
2018-05-03T15:21:19.564Z,21.40
2018-05-03T15:23:47.063Z,21.10
2018-05-03T15:26:14.570Z,21.00
2018-05-03T15:28:42.111Z,21.00
2018-05-03T15:31:10.007Z,20.10
2018-05-03T15:33:37.502Z,20.10
2018-05-03T15:36:05.009Z,19.90
2018-05-03T15:38:32.547Z,19.80
2018-05-03T15:41:00.470Z,19.80
2018-05-03T15:43:27.953Z,19.80
2018-05-03T15:45:55.459Z,20.00
2018-05-03T15:48:22.972Z,20.20
2018-05-03T15:50:50.913Z,20.50
2018-05-03T15:53:18.459Z,20.50
2018-05-03T15:55:45.972Z,20.40
2018-05-03T15:58:13.463Z,20.10
2018-05-03T16:00:40.952Z,19.90
2018-05-03T16:03:08.451Z,19.70
2018-05-03T16:05:35.979Z,19.40
2018-05-03T16:08:04.050Z,19.10
2018-05-03T16:10:31.541Z,19.10
2018-05-03T16:12:59.042Z,19.00
2018-05-03T16:15:26.550Z,18.80
2018-05-03T16:17:54.068Z,18.70
2018-05-03T16:20:21.578Z,18.70
2018-05-03T16:22:49.091Z,18.50
2018-05-03T16:25:17.037Z,18.50
2018-05-03T16:27:44.574Z,18.50
2018-05-03T16:30:12.133Z,18.50
2018-05-03T16:32:39.656Z,18.40
2018-05-03T16:35:07.164Z,18.30
2018-05-03T16:37:34.671Z,18.20
2018-05-03T16:40:02.196Z,18.10
2018-05-03T16:42:29.693Z,18.00
2018-05-03T16:44:57.223Z,17.90
2018-05-03T16:47:24.726Z,17.90
2018-05-03T16:49:52.219Z,17.80
2018-05-03T16:52:19.767Z,17.70
2018-05-03T16:54:47.225Z,17.70
2018-05-03T16:57:14.769Z,17.80
2018-05-03T16:59:42.272Z,17.80
2018-05-03T17:02:10.056Z,17.80
2018-05-03T17:04:37.562Z,17.70
2018-05-03T17:07:05.090Z,17.60
2018-05-03T17:09:32.583Z,17.50
2018-05-03T17:12:00.068Z,17.30
2018-05-03T17:14:28.009Z,17.20
2018-05-03T17:16:55.500Z,17.20
2018-05-03T17:19:23.412Z,17.00
2018-05-03T17:21:50.920Z,17.00
2018-05-03T17:24:18.848Z,16.80
2018-05-03T17:26:46.350Z,16.80
2018-05-03T17:29:14.260Z,16.70
2018-05-03T17:31:41.770Z,16.70
2018-05-03T17:34:09.676Z,16.50
2018-05-03T17:36:37.160Z,16.50
2018-05-03T17:39:04.731Z,16.50
2018-05-03T17:41:32.207Z,16.50
2018-05-03T17:44:00.114Z,16.50
2018-05-03T17:46:27.613Z,16.50
2018-05-03T17:48:55.121Z,16.40
2018-05-03T17:51:22.627Z,16.40
2018-05-03T17:53:50.207Z,16.40
2018-05-03T17:56:18.220Z,16.20
2018-05-03T17:58:45.770Z,16.20
2018-05-03T18:01:14.194Z,16.20
2018-05-03T18:03:41.715Z,16.10
2018-05-03T18:06:19.012Z,16.00
2018-05-03T18:08:46.513Z,15.90
2018-05-03T18:11:14.427Z,15.80
2018-05-03T18:13:41.985Z,15.80
2018-05-03T18:16:10.648Z,15.70
2018-05-03T18:18:38.092Z,15.60
2018-05-03T18:21:06.109Z,15.40
2018-05-03T18:23:33.696Z,15.40
2018-05-03T18:26:01.191Z,15.30
2018-05-03T18:28:28.712Z,15.20
2018-05-03T18:30:56.233Z,15.10
2018-05-03T18:33:24.003Z,15.00
2018-05-03T18:35:52.569Z,14.90
2018-05-03T18:38:20.654Z,14.80
2018-05-03T18:40:48.162Z,14.70
2018-05-03T18:43:15.683Z,14.60
2018-05-03T18:45:44.376Z,14.50
2018-05-03T18:48:11.906Z,14.40
2018-05-03T18:50:39.402Z,14.30
2018-05-03T18:53:08.851Z,14.20
2018-05-03T18:55:36.361Z,14.10
2018-05-03T18:58:03.854Z,14.00
2018-05-03T19:00:31.388Z,13.90
2018-05-03T19:02:59.309Z,13.60
2018-05-03T19:05:26.805Z,13.60
2018-05-03T19:07:54.732Z,13.50
2018-05-03T19:10:22.425Z,13.50
2018-05-03T19:12:49.776Z,13.40
2018-05-03T19:15:17.327Z,13.30
2018-05-03T19:17:44.937Z,13.30
2018-05-03T19:20:12.484Z,13.20
2018-05-03T19:22:40.036Z,13.20
2018-05-03T19:25:07.941Z,13.10
2018-05-03T19:27:35.447Z,13.10
2018-05-03T19:30:02.970Z,12.90
2018-05-03T19:32:30.473Z,12.90
2018-05-03T19:34:58.001Z,12.80
2018-05-03T19:37:25.538Z,12.70
2018-05-03T19:39:53.084Z,12.70
2018-05-03T19:42:20.796Z,12.60
2018-05-03T19:44:48.364Z,12.50
2018-05-03T19:47:15.863Z,12.40
2018-05-03T19:49:43.388Z,12.30
2018-05-03T19:52:11.267Z,12.20
2018-05-03T19:54:38.801Z,12.20
2018-05-03T19:57:06.392Z,12.10
2018-05-03T19:59:33.899Z,12.10
2018-05-03T20:02:01.651Z,12.00
2018-05-03T20:04:29.192Z,12.00
2018-05-03T20:06:56.722Z,11.90
2018-05-03T20:09:24.242Z,11.90
2018-05-03T20:11:51.749Z,11.80
2018-05-03T20:14:19.404Z,11.70
2018-05-03T20:16:47.058Z,11.60
2018-05-03T20:19:14.590Z,11.60
2018-05-03T20:27:20.296Z,11.40
2018-05-03T20:29:48.201Z,11.30
2018-05-03T20:32:15.741Z,11.30
2018-05-03T20:34:44.914Z,11.30
2018-05-03T20:37:13.626Z,11.10
2018-05-03T20:39:41.141Z,11.20
2018-05-03T20:42:08.727Z,11.10
2018-05-03T20:44:36.243Z,11.00
2018-05-03T20:47:03.772Z,11.00
2018-05-03T20:49:31.281Z,10.90
2018-05-03T20:51:58.819Z,10.90
2018-05-03T20:54:26.342Z,10.80
2018-05-03T20:56:53.870Z,10.80
2018-05-03T20:59:21.403Z,10.70
2018-05-03T21:01:49.050Z,10.70
2018-05-03T21:04:17.063Z,10.60
2018-05-03T21:06:44.589Z,10.60
2018-05-03T21:09:12.085Z,10.50
2018-05-03T21:11:39.615Z,10.50
2018-05-03T21:14:07.517Z,10.30
2018-05-03T21:16:35.040Z,10.30
2018-05-03T21:19:02.941Z,10.30
2018-05-03T21:21:30.628Z,10.30
2018-05-03T21:23:58.156Z,10.30
2018-05-03T21:26:25.703Z,10.20
2018-05-03T21:28:53.573Z,10.20
2018-05-03T21:31:21.073Z,10.20
2018-05-03T21:33:48.608Z,10.10
2018-05-03T21:36:16.137Z,10.10
2018-05-03T21:38:44.033Z,10.00
2018-05-03T21:41:11.536Z,10.00
2018-05-03T21:43:39.037Z,10.00
2018-05-03T21:46:06.565Z,9.90
2018-05-03T21:48:34.163Z,9.90
2018-05-03T21:51:01.661Z,9.80
2018-05-03T21:53:29.156Z,9.70
2018-05-03T21:55:56.649Z,9.70
2018-05-03T21:58:24.155Z,9.70
2018-05-03T22:00:52.077Z,9.60
2018-05-03T22:03:19.598Z,9.60
2018-05-03T22:05:47.095Z,9.50
2018-05-03T22:08:14.607Z,9.40
2018-05-03T22:10:42.527Z,9.30
2018-05-03T22:13:10.025Z,9.20
2018-05-03T22:15:37.913Z,9.00
2018-05-03T22:18:05.436Z,9.00
2018-05-03T22:20:32.943Z,8.90
2018-05-03T22:23:00.475Z,8.80
2018-05-03T22:25:27.958Z,8.80
2018-05-03T22:27:55.477Z,8.70
2018-05-03T22:30:22.963Z,8.60
2018-05-03T22:32:50.500Z,8.50
2018-05-03T22:35:18.013Z,8.50
2018-05-03T22:37:45.525Z,8.40
2018-05-03T22:40:13.036Z,8.30
2018-05-03T22:42:40.553Z,8.30
2018-05-03T22:45:08.061Z,8.20
2018-05-03T22:47:35.591Z,8.20
2018-05-03T22:50:03.219Z,8.10
2018-05-03T22:52:30.743Z,8.10
2018-05-03T22:54:58.889Z,7.90
2018-05-03T22:57:26.398Z,7.90
2018-05-03T22:59:53.945Z,7.80
2018-05-03T23:02:21.847Z,7.70
2018-05-03T23:04:49.356Z,7.70
2018-05-03T23:07:16.884Z,7.60
2018-05-03T23:09:44.367Z,7.60
2018-05-03T23:12:11.885Z,7.50
2018-05-03T23:14:39.384Z,7.40
2018-05-03T23:17:07.284Z,7.30
2018-05-03T23:19:34.810Z,7.30
2018-05-03T23:22:02.332Z,7.20
2018-05-03T23:24:29.837Z,7.10
2018-05-03T23:26:57.786Z,7.00
2018-05-03T23:29:25.294Z,7.00
2018-05-03T23:31:52.790Z,6.90
2018-05-03T23:34:20.294Z,6.90
2018-05-03T23:36:47.813Z,6.80
2018-05-03T23:39:15.312Z,6.80
2018-05-03T23:41:42.864Z,6.70
2018-05-03T23:44:10.768Z,6.60
2018-05-03T23:46:38.284Z,6.60
2018-05-03T23:49:05.803Z,6.60
2018-05-03T23:51:33.320Z,6.50
2018-05-03T23:54:00.836Z,6.50
2018-05-03T23:56:28.732Z,6.40
2018-05-03T23:58:56.252Z,6.40
